Etusivu
METAR-TAF:

METAR-TAF

Lentoasemat :

Kuressaaren lentoasema

Kuressaari, Viro

Leveyspiiri: 58-13-48N, Pituuspiiri: 022-30-34E, korkeus merenpinnasta: 4 m

Tämänhetkinen sää

Tämä raportti tehtiin 47 minuuttia sitten, kello 08.50 UTC
Tuuli 14 kn koillisesta
Lämpötila 17°C
Kosteus 45%
Ilmanpaine 1025 hPa
Näkyvyys 10 km tai enemmän
ei pilviä alle 1500 m:ssä eikä cumulonimbus-pilviä

METAR: EEKE 300850Z 04014KT CAVOK 17/05 Q1025

Aika: 12:37 (09:37 UTC)

Sääennuste

Tämä raportti tehtiin 2 tuntia ja 37 minuuttia sitten, kello 07.00 UTC
Ennuste voimassa 30. päivästä klo 08 UTC - 30. päivään klo 14 UTC
Tuuli 14 kn pohjoisesta
Näkyvyys 10 km tai enemmän
ei pilviä alle 1500 m:ssä eikä cumulonimbus-pilviä

TAF: EEKE 300700Z 3008/3014 01014KT CAVOK

Säähavainnot ja -ennusteet yli 4000 lentoasemalta (METAR- ja TAF-raportit).

Käytössä olevat sääasemat on merkitty karttaan keltaisilla ja punaisilla pisteillä.

Aseta hiiri pisteen päälle nähdäksesi sääaseman nimen.

Klikkaa sitten nähdäksesi säähavainnot ja -ennusteet.

Kartan vaihtaminen: klikkaa mustalla rastilla varustettuja vihreitä pisteitä, niin voit zoomata sisään; viivalla varustettua vihreää pistettä, niin voit zoomata ulos tai vihreitä nuolia, niin pääset viereisille kartoille.


METAR-TAF: